createdAt,value
2022-11-08T00:00:22.888Z,94.20
2022-11-08T00:05:53.635Z,105.57
2022-11-08T00:11:23.068Z,85.15
2022-11-08T00:16:31.845Z,97.78
2022-11-08T00:21:38.176Z,97.65
2022-11-08T00:26:44.252Z,80.10
2022-11-08T00:31:50.431Z,84.97
2022-11-08T00:36:56.194Z,101.07
2022-11-08T00:48:00.277Z,94.05
2022-11-08T00:54:12.042Z,90.93
2022-11-08T00:59:21.883Z,92.35
2022-11-08T01:04:36.806Z,84.50
2022-11-08T01:09:46.057Z,97.43
2022-11-08T01:14:52.564Z,109.53
2022-11-08T01:19:58.054Z,74.10
2022-11-08T01:25:03.253Z,70.13
2022-11-08T01:30:09.669Z,78.30
2022-11-08T01:35:15.137Z,73.93
2022-11-08T01:40:21.029Z,96.28
2022-11-08T01:45:44.894Z,93.68
2022-11-08T01:50:50.836Z,95.07
2022-11-08T02:01:04.807Z,69.72
2022-11-08T02:06:11.558Z,90.63
2022-11-08T02:11:17.742Z,83.88
2022-11-08T02:16:23.425Z,79.63
2022-11-08T02:21:35.645Z,80.32
2022-11-08T02:26:41.639Z,80.82
2022-11-08T02:36:52.251Z,68.15
2022-11-08T02:41:57.756Z,79.22
2022-11-08T02:47:03.465Z,71.53
2022-11-08T02:57:14.381Z,66.13
2022-11-08T03:07:25.784Z,75.85
2022-11-08T03:12:31.316Z,75.13
2022-11-08T03:17:37.230Z,70.32
2022-11-08T03:22:42.467Z,64.63
2022-11-08T03:27:48.244Z,64.07
2022-11-08T03:32:54.018Z,71.28
2022-11-08T03:38:00.434Z,69.63
2022-11-08T03:43:06.263Z,79.20
2022-11-08T03:48:12.401Z,75.90
2022-11-08T03:53:18.250Z,70.13
2022-11-08T04:03:28.840Z,74.40
2022-11-08T04:08:34.462Z,72.80
2022-11-08T04:13:59.351Z,60.60
2022-11-08T04:19:23.639Z,62.33
2022-11-08T04:24:32.309Z,61.85
2022-11-08T04:29:38.173Z,65.50
2022-11-08T04:34:43.695Z,63.95
2022-11-08T04:39:49.463Z,56.55
2022-11-08T04:44:58.387Z,58.17
2022-11-08T04:50:07.095Z,57.13
2022-11-08T04:55:12.898Z,59.03
2022-11-08T05:00:19.411Z,56.35
2022-11-08T05:05:25.148Z,53.03
2022-11-08T05:10:31.075Z,66.57
2022-11-08T05:15:37.684Z,53.08
2022-11-08T05:21:01.229Z,61.65
2022-11-08T05:26:06.789Z,68.85
2022-11-08T05:31:16.084Z,54.03
2022-11-08T05:36:25.135Z,59.28
2022-11-08T05:41:30.921Z,64.60
2022-11-08T05:46:36.863Z,70.75
2022-11-08T05:51:42.709Z,59.05
2022-11-08T06:01:54.319Z,67.32
2022-11-08T06:07:00.176Z,64.88
2022-11-08T06:12:06.376Z,65.68
2022-11-08T06:17:12.391Z,60.92
2022-11-08T06:22:18.580Z,63.10
2022-11-08T06:32:28.854Z,64.13
2022-11-08T06:37:34.922Z,61.75
2022-11-08T06:42:43.473Z,70.35
2022-11-08T06:47:49.332Z,66.07
2022-11-08T06:57:59.865Z,64.38
2022-11-08T07:03:09.209Z,61.42
2022-11-08T07:08:18.106Z,65.60
2022-11-08T07:13:26.610Z,65.18
2022-11-08T07:18:32.435Z,61.55
2022-11-08T07:23:38.458Z,61.08
2022-11-08T07:28:44.118Z,60.10
2022-11-08T07:38:55.629Z,63.65
2022-11-08T07:44:01.419Z,68.25
2022-11-08T07:49:06.908Z,56.63
2022-11-08T07:59:17.817Z,71.38
2022-11-08T08:04:23.724Z,68.43
2022-11-08T08:09:29.224Z,69.15
2022-11-08T08:14:35.314Z,56.33
2022-11-08T08:24:46.578Z,78.30
2022-11-08T08:29:52.028Z,66.50
2022-11-08T08:34:57.591Z,76.75
2022-11-08T08:40:03.271Z,77.38
2022-11-08T08:50:19.362Z,64.88
2022-11-08T09:05:56.335Z,77.65
2022-11-08T09:11:03.638Z,73.40
2022-11-08T09:16:11.577Z,67.15
2022-11-08T09:21:17.412Z,81.35
2022-11-08T09:26:23.163Z,80.07
2022-11-08T09:31:28.485Z,77.30
2022-11-08T09:36:34.429Z,80.78
2022-11-08T09:46:53.809Z,82.90
2022-11-08T09:52:00.928Z,87.88
2022-11-08T09:57:07.677Z,85.30
2022-11-08T10:02:19.505Z,88.85
2022-11-08T10:07:38.496Z,87.82
2022-11-08T10:12:47.454Z,89.85
2022-11-08T10:17:59.152Z,87.53
2022-11-08T10:23:26.030Z,93.10
2022-11-08T10:28:43.533Z,92.55
2022-11-08T10:33:55.718Z,90.82
2022-11-08T10:39:13.500Z,91.80
2022-11-08T10:44:24.102Z,98.53
2022-11-08T10:49:30.901Z,97.70
2022-11-08T10:54:47.028Z,101.50
2022-11-08T11:05:15.610Z,112.85
2022-11-08T11:10:35.759Z,95.80
2022-11-08T11:15:54.653Z,105.38
2022-11-08T11:21:12.010Z,94.47
2022-11-08T11:26:30.437Z,108.53
2022-11-08T11:31:36.403Z,114.43
2022-11-08T11:42:23.866Z,99.47
2022-11-08T11:48:17.198Z,117.20
2022-11-08T11:53:15.485Z,101.72
2022-11-08T11:58:24.324Z,128.57
2022-11-08T12:03:45.489Z,128.20
2022-11-08T12:08:59.111Z,134.67
2022-11-08T12:14:05.126Z,119.03
2022-11-08T12:19:20.796Z,126.88
2022-11-08T12:24:55.189Z,131.30
2022-11-08T12:30:13.208Z,127.55
2022-11-08T12:35:25.342Z,125.57
2022-11-08T12:40:38.819Z,115.05
2022-11-08T12:46:03.114Z,115.32
2022-11-08T12:51:27.580Z,115.05
2022-11-08T12:56:44.369Z,107.75
2022-11-08T13:01:51.208Z,124.80
2022-11-08T13:06:57.867Z,91.53
2022-11-08T13:12:26.772Z,83.63
2022-11-08T13:17:34.508Z,99.15
2022-11-08T13:22:42.035Z,98.60
2022-11-08T13:27:49.831Z,92.55
2022-11-08T13:33:02.105Z,78.30
2022-11-08T13:38:19.006Z,78.75
2022-11-08T13:43:25.171Z,77.90
2022-11-08T13:48:36.391Z,70.65
2022-11-08T13:53:49.834Z,66.97
2022-11-08T13:58:56.239Z,64.47
2022-11-08T14:04:02.293Z,63.47
2022-11-08T14:09:33.363Z,62.55
2022-11-08T14:14:57.801Z,54.05
2022-11-08T14:20:19.527Z,55.50
2022-11-08T14:25:33.171Z,52.17
2022-11-08T14:30:48.067Z,50.67
2022-11-08T14:36:01.338Z,51.83
2022-11-08T14:41:13.541Z,51.95
2022-11-08T14:46:39.476Z,47.22
2022-11-08T14:51:47.271Z,51.10
2022-11-08T14:56:56.377Z,49.05
2022-11-08T15:02:03.516Z,54.67
2022-11-08T15:07:20.473Z,51.85
2022-11-08T15:12:29.314Z,47.85
2022-11-08T15:17:41.534Z,50.92
2022-11-08T15:22:52.881Z,48.10
2022-11-08T15:28:16.755Z,47.45
2022-11-08T15:33:32.161Z,47.85
2022-11-08T15:38:43.738Z,45.53
2022-11-08T15:43:55.177Z,50.35
2022-11-08T15:49:01.889Z,49.90
2022-11-08T15:54:08.398Z,46.92
2022-11-08T15:59:21.478Z,46.28
2022-11-08T16:04:27.646Z,49.00
2022-11-08T16:09:33.300Z,45.00
2022-11-08T16:14:39.173Z,39.67
2022-11-08T16:19:48.074Z,42.60
2022-11-08T16:25:00.487Z,47.47
2022-11-08T16:30:08.639Z,40.10
2022-11-08T16:35:14.364Z,43.50
2022-11-08T16:40:20.238Z,46.17
2022-11-08T16:45:50.660Z,49.00
2022-11-08T16:50:53.369Z,46.97
2022-11-08T16:55:59.374Z,45.92
2022-11-08T17:01:10.442Z,49.20
2022-11-08T17:06:19.805Z,47.10
2022-11-08T17:11:26.461Z,50.55
2022-11-08T17:16:32.575Z,50.70
2022-11-08T17:26:51.831Z,50.63
2022-11-08T17:31:57.242Z,51.42
2022-11-08T17:37:03.091Z,52.67
2022-11-08T17:47:14.074Z,46.20
2022-11-08T17:52:19.793Z,49.35
2022-11-08T17:57:25.592Z,45.47
2022-11-08T18:02:31.039Z,44.35
2022-11-08T18:07:36.560Z,43.03
2022-11-08T18:12:50.003Z,41.05
2022-11-08T18:17:57.185Z,42.30
2022-11-08T18:23:03.181Z,44.35
2022-11-08T18:28:09.304Z,41.10
2022-11-08T18:38:20.227Z,42.45
2022-11-08T18:43:25.669Z,45.93
2022-11-08T18:48:31.147Z,46.20
2022-11-08T18:53:36.807Z,44.80
2022-11-08T18:58:42.678Z,40.80
2022-11-08T19:08:53.499Z,43.60
2022-11-08T19:13:59.602Z,43.97
2022-11-08T19:19:05.415Z,44.60
2022-11-08T19:24:12.533Z,45.60
2022-11-08T19:29:18.131Z,48.90
2022-11-08T19:34:23.993Z,47.85
2022-11-08T19:39:29.526Z,48.13
2022-11-08T19:44:35.668Z,44.83
2022-11-08T19:49:41.197Z,46.75
2022-11-08T19:54:47.507Z,49.75
2022-11-08T20:04:58.722Z,48.83
2022-11-08T20:10:04.576Z,45.88
2022-11-08T20:15:10.490Z,45.95
2022-11-08T20:25:22.294Z,46.30
2022-11-08T20:30:27.735Z,46.33
2022-11-08T20:35:33.327Z,43.13
2022-11-08T20:40:40.371Z,47.50
2022-11-08T20:45:46.317Z,48.30
2022-11-08T20:50:51.765Z,40.47
2022-11-08T20:56:03.948Z,44.57
2022-11-08T21:01:11.675Z,45.65
2022-11-08T21:06:18.931Z,47.05
2022-11-08T21:11:24.647Z,45.60
2022-11-08T21:21:39.140Z,47.95
2022-11-08T21:26:45.003Z,48.08
2022-11-08T21:31:50.835Z,48.70
2022-11-08T21:36:56.672Z,46.00
2022-11-08T21:42:02.421Z,46.10
2022-11-08T21:47:07.884Z,47.80
2022-11-08T21:52:13.694Z,49.43
2022-11-08T21:57:19.837Z,50.33
2022-11-08T22:02:25.352Z,48.58
2022-11-08T22:07:31.170Z,47.53
2022-11-08T22:12:36.758Z,47.67
2022-11-08T22:18:00.908Z,49.28
2022-11-08T22:23:09.036Z,53.47
2022-11-08T22:28:14.858Z,53.47
2022-11-08T22:33:21.122Z,62.55
2022-11-08T22:38:27.107Z,61.95
2022-11-08T22:48:41.110Z,60.90
2022-11-08T22:53:46.796Z,56.63
2022-11-08T22:58:52.648Z,72.28
2022-11-08T23:03:58.991Z,77.18
2022-11-08T23:09:04.813Z,81.38
2022-11-08T23:14:36.456Z,113.20
2022-11-08T23:20:00.986Z,148.40
2022-11-08T23:25:07.226Z,140.88
2022-11-08T23:30:33.855Z,157.25
2022-11-08T23:41:02.908Z,170.20
2022-11-08T23:46:14.072Z,149.90
2022-11-08T23:51:19.820Z,141.93
2022-11-08T23:56:26.466Z,153.83
